sensor_id;sensor_type;location;lat;lon;timestamp;P1;durP1;ratioP1;P2;durP2;ratioP2
36371;SDS011;22398;51.346;12.372;2024-03-17T00:04:21;9.45;;;3.83;;
36371;SDS011;22398;51.346;12.372;2024-03-17T00:09:24;18.15;;;4.22;;
36371;SDS011;22398;51.346;12.372;2024-03-17T00:14:28;14.57;;;3.55;;
36371;SDS011;22398;51.346;12.372;2024-03-17T00:19:30;9.98;;;3.75;;
36371;SDS011;22398;51.346;12.372;2024-03-17T00:24:32;10.52;;;3.10;;
36371;SDS011;22398;51.346;12.372;2024-03-17T00:29:36;9.50;;;3.47;;
36371;SDS011;22398;51.346;12.372;2024-03-17T00:34:38;12.82;;;4.47;;
36371;SDS011;22398;51.346;12.372;2024-03-17T00:39:41;11.23;;;4.05;;
36371;SDS011;22398;51.346;12.372;2024-03-17T00:44:44;11.38;;;3.63;;
36371;SDS011;22398;51.346;12.372;2024-03-17T00:49:46;9.73;;;3.92;;
36371;SDS011;22398;51.346;12.372;2024-03-17T00:54:50;17.25;;;4.90;;
36371;SDS011;22398;51.346;12.372;2024-03-17T00:59:53;11.57;;;4.38;;
36371;SDS011;22398;51.346;12.372;2024-03-17T01:04:56;9.27;;;4.05;;
36371;SDS011;22398;51.346;12.372;2024-03-17T01:09:59;10.52;;;4.38;;
36371;SDS011;22398;51.346;12.372;2024-03-17T01:15:04;11.80;;;4.20;;
36371;SDS011;22398;51.346;12.372;2024-03-17T01:20:07;12.38;;;3.50;;
36371;SDS011;22398;51.346;12.372;2024-03-17T01:25:10;11.00;;;4.50;;
36371;SDS011;22398;51.346;12.372;2024-03-17T01:30:14;7.25;;;3.55;;
36371;SDS011;22398;51.346;12.372;2024-03-17T01:35:16;6.80;;;3.58;;
36371;SDS011;22398;51.346;12.372;2024-03-17T01:40:19;10.25;;;3.50;;
36371;SDS011;22398;51.346;12.372;2024-03-17T01:45:27;7.55;;;3.22;;
36371;SDS011;22398;51.346;12.372;2024-03-17T01:50:31;11.55;;;4.90;;
36371;SDS011;22398;51.346;12.372;2024-03-17T01:55:36;9.13;;;3.95;;
36371;SDS011;22398;51.346;12.372;2024-03-17T02:00:41;11.02;;;4.00;;
36371;SDS011;22398;51.346;12.372;2024-03-17T02:05:43;11.15;;;3.15;;
36371;SDS011;22398;51.346;12.372;2024-03-17T02:10:46;9.13;;;3.72;;
36371;SDS011;22398;51.346;12.372;2024-03-17T02:15:54;7.10;;;3.75;;
36371;SDS011;22398;51.346;12.372;2024-03-17T02:20:57;8.13;;;3.15;;
36371;SDS011;22398;51.346;12.372;2024-03-17T02:26:02;7.82;;;3.38;;
36371;SDS011;22398;51.346;12.372;2024-03-17T02:31:06;11.88;;;3.42;;
36371;SDS011;22398;51.346;12.372;2024-03-17T02:36:10;8.83;;;3.63;;
36371;SDS011;22398;51.346;12.372;2024-03-17T02:41:15;10.77;;;3.80;;
36371;SDS011;22398;51.346;12.372;2024-03-17T02:46:18;9.73;;;3.78;;
36371;SDS011;22398;51.346;12.372;2024-03-17T02:51:21;8.98;;;3.42;;
36371;SDS011;22398;51.346;12.372;2024-03-17T02:56:26;10.02;;;3.00;;
36371;SDS011;22398;51.346;12.372;2024-03-17T03:01:28;7.38;;;3.35;;
36371;SDS011;22398;51.346;12.372;2024-03-17T03:06:31;10.82;;;3.50;;
36371;SDS011;22398;51.346;12.372;2024-03-17T03:11:35;7.60;;;2.90;;
36371;SDS011;22398;51.346;12.372;2024-03-17T03:16:37;5.88;;;3.22;;
36371;SDS011;22398;51.346;12.372;2024-03-17T03:21:39;10.15;;;3.25;;
36371;SDS011;22398;51.346;12.372;2024-03-17T03:26:43;8.60;;;3.38;;
36371;SDS011;22398;51.346;12.372;2024-03-17T03:31:45;6.60;;;3.08;;
36371;SDS011;22398;51.346;12.372;2024-03-17T03:36:48;7.32;;;3.33;;
36371;SDS011;22398;51.346;12.372;2024-03-17T03:41:51;7.35;;;3.38;;
36371;SDS011;22398;51.346;12.372;2024-03-17T03:46:55;8.97;;;3.67;;
36371;SDS011;22398;51.346;12.372;2024-03-17T03:51:58;9.60;;;3.75;;
36371;SDS011;22398;51.346;12.372;2024-03-17T03:57:02;7.28;;;3.40;;
36371;SDS011;22398;51.346;12.372;2024-03-17T04:02:05;9.77;;;3.53;;
36371;SDS011;22398;51.346;12.372;2024-03-17T04:07:07;7.57;;;3.30;;
36371;SDS011;22398;51.346;12.372;2024-03-17T04:12:11;7.55;;;3.50;;
36371;SDS011;22398;51.346;12.372;2024-03-17T04:17:13;9.07;;;3.33;;
36371;SDS011;22398;51.346;12.372;2024-03-17T04:22:17;11.05;;;2.97;;
36371;SDS011;22398;51.346;12.372;2024-03-17T04:27:21;7.25;;;3.30;;
36371;SDS011;22398;51.346;12.372;2024-03-17T04:32:24;5.05;;;2.88;;
36371;SDS011;22398;51.346;12.372;2024-03-17T04:37:27;5.53;;;2.55;;
36371;SDS011;22398;51.346;12.372;2024-03-17T04:42:31;7.75;;;2.85;;
36371;SDS011;22398;51.346;12.372;2024-03-17T04:47:33;6.00;;;3.17;;
36371;SDS011;22398;51.346;12.372;2024-03-17T04:52:36;12.02;;;3.20;;
36371;SDS011;22398;51.346;12.372;2024-03-17T04:57:39;8.48;;;2.97;;
36371;SDS011;22398;51.346;12.372;2024-03-17T05:02:41;5.30;;;2.78;;
36371;SDS011;22398;51.346;12.372;2024-03-17T05:07:44;6.13;;;3.13;;
36371;SDS011;22398;51.346;12.372;2024-03-17T05:12:47;9.13;;;3.45;;
36371;SDS011;22398;51.346;12.372;2024-03-17T05:17:50;10.60;;;3.80;;
36371;SDS011;22398;51.346;12.372;2024-03-17T05:22:52;8.55;;;2.63;;
36371;SDS011;22398;51.346;12.372;2024-03-17T05:27:56;12.77;;;3.15;;
36371;SDS011;22398;51.346;12.372;2024-03-17T05:32:58;5.88;;;3.42;;
36371;SDS011;22398;51.346;12.372;2024-03-17T05:38:01;6.68;;;2.92;;
36371;SDS011;22398;51.346;12.372;2024-03-17T05:43:05;6.40;;;3.22;;
36371;SDS011;22398;51.346;12.372;2024-03-17T05:48:07;6.57;;;3.30;;
36371;SDS011;22398;51.346;12.372;2024-03-17T05:53:10;8.80;;;3.65;;
36371;SDS011;22398;51.346;12.372;2024-03-17T05:58:14;6.10;;;3.08;;
36371;SDS011;22398;51.346;12.372;2024-03-17T06:03:16;8.38;;;3.65;;
36371;SDS011;22398;51.346;12.372;2024-03-17T06:08:19;10.35;;;3.33;;
36371;SDS011;22398;51.346;12.372;2024-03-17T06:13:23;7.45;;;3.63;;
36371;SDS011;22398;51.346;12.372;2024-03-17T06:18:26;6.97;;;3.38;;
36371;SDS011;22398;51.346;12.372;2024-03-17T06:23:29;8.48;;;3.80;;
36371;SDS011;22398;51.346;12.372;2024-03-17T06:28:33;11.10;;;3.70;;
36371;SDS011;22398;51.346;12.372;2024-03-17T06:33:35;7.85;;;3.70;;
36371;SDS011;22398;51.346;12.372;2024-03-17T06:38:37;11.70;;;4.50;;
36371;SDS011;22398;51.346;12.372;2024-03-17T06:43:40;7.43;;;4.05;;
36371;SDS011;22398;51.346;12.372;2024-03-17T06:48:43;14.05;;;5.13;;
36371;SDS011;22398;51.346;12.372;2024-03-17T06:53:46;9.48;;;3.72;;
36371;SDS011;22398;51.346;12.372;2024-03-17T06:58:50;10.57;;;3.60;;
36371;SDS011;22398;51.346;12.372;2024-03-17T07:03:54;8.50;;;4.38;;
36371;SDS011;22398;51.346;12.372;2024-03-17T07:08:56;11.85;;;3.88;;
36371;SDS011;22398;51.346;12.372;2024-03-17T07:14:00;8.85;;;3.22;;
36371;SDS011;22398;51.346;12.372;2024-03-17T07:19:03;7.20;;;3.20;;
36371;SDS011;22398;51.346;12.372;2024-03-17T07:24:05;13.75;;;3.38;;
36371;SDS011;22398;51.346;12.372;2024-03-17T07:29:09;7.28;;;3.58;;
36371;SDS011;22398;51.346;12.372;2024-03-17T07:34:11;7.65;;;2.72;;
36371;SDS011;22398;51.346;12.372;2024-03-17T07:39:14;13.57;;;3.63;;
36371;SDS011;22398;51.346;12.372;2024-03-17T07:44:18;8.70;;;3.70;;
36371;SDS011;22398;51.346;12.372;2024-03-17T07:49:20;8.32;;;3.78;;
36371;SDS011;22398;51.346;12.372;2024-03-17T07:54:22;7.53;;;2.67;;
36371;SDS011;22398;51.346;12.372;2024-03-17T07:59:25;7.38;;;2.72;;
36371;SDS011;22398;51.346;12.372;2024-03-17T08:04:28;11.60;;;3.13;;
36371;SDS011;22398;51.346;12.372;2024-03-17T08:09:30;10.45;;;3.47;;
36371;SDS011;22398;51.346;12.372;2024-03-17T08:14:33;13.20;;;3.35;;
36371;SDS011;22398;51.346;12.372;2024-03-17T08:19:35;6.68;;;2.70;;
36371;SDS011;22398;51.346;12.372;2024-03-17T08:24:39;7.90;;;3.20;;
36371;SDS011;22398;51.346;12.372;2024-03-17T08:29:43;11.00;;;4.28;;
36371;SDS011;22398;51.346;12.372;2024-03-17T08:34:46;11.32;;;2.67;;
36371;SDS011;22398;51.346;12.372;2024-03-17T08:39:49;8.70;;;2.97;;
36371;SDS011;22398;51.346;12.372;2024-03-17T08:44:53;10.45;;;2.85;;
36371;SDS011;22398;51.346;12.372;2024-03-17T08:49:55;9.15;;;2.70;;
36371;SDS011;22398;51.346;12.372;2024-03-17T08:54:58;14.27;;;3.22;;
36371;SDS011;22398;51.346;12.372;2024-03-17T09:00:05;11.07;;;3.00;;
36371;SDS011;22398;51.346;12.372;2024-03-17T09:05:10;10.50;;;3.28;;
36371;SDS011;22398;51.346;12.372;2024-03-17T09:10:13;11.18;;;3.03;;
36371;SDS011;22398;51.346;12.372;2024-03-17T09:15:17;18.63;;;5.18;;
36371;SDS011;22398;51.346;12.372;2024-03-17T09:20:20;12.18;;;2.95;;
36371;SDS011;22398;51.346;12.372;2024-03-17T09:25:22;6.72;;;3.15;;
36371;SDS011;22398;51.346;12.372;2024-03-17T09:30:26;7.30;;;3.05;;
36371;SDS011;22398;51.346;12.372;2024-03-17T09:35:29;9.65;;;2.88;;
36371;SDS011;22398;51.346;12.372;2024-03-17T09:40:31;6.05;;;2.83;;
36371;SDS011;22398;51.346;12.372;2024-03-17T09:45:35;13.52;;;2.78;;
36371;SDS011;22398;51.346;12.372;2024-03-17T09:50:38;9.80;;;2.28;;
36371;SDS011;22398;51.346;12.372;2024-03-17T09:55:42;7.30;;;2.42;;
36371;SDS011;22398;51.346;12.372;2024-03-17T10:00:45;10.98;;;2.83;;
36371;SDS011;22398;51.346;12.372;2024-03-17T10:05:48;11.48;;;2.17;;
36371;SDS011;22398;51.346;12.372;2024-03-17T10:11:01;9.00;;;3.70;;
36371;SDS011;22398;51.346;12.372;2024-03-17T10:16:05;8.98;;;2.55;;
36371;SDS011;22398;51.346;12.372;2024-03-17T10:21:11;37.95;;;5.30;;
36371;SDS011;22398;51.346;12.372;2024-03-17T10:26:26;8.63;;;2.53;;
36371;SDS011;22398;51.346;12.372;2024-03-17T10:31:30;9.50;;;2.80;;
36371;SDS011;22398;51.346;12.372;2024-03-17T10:36:33;7.65;;;3.05;;
36371;SDS011;22398;51.346;12.372;2024-03-17T10:41:35;9.80;;;2.35;;
36371;SDS011;22398;51.346;12.372;2024-03-17T10:46:41;6.25;;;3.15;;
36371;SDS011;22398;51.346;12.372;2024-03-17T10:51:44;9.18;;;3.22;;
36371;SDS011;22398;51.346;12.372;2024-03-17T10:56:51;9.45;;;2.53;;
36371;SDS011;22398;51.346;12.372;2024-03-17T11:01:58;12.40;;;3.35;;
36371;SDS011;22398;51.346;12.372;2024-03-17T11:07:01;13.35;;;3.80;;
36371;SDS011;22398;51.346;12.372;2024-03-17T11:12:04;11.43;;;4.28;;
36371;SDS011;22398;51.346;12.372;2024-03-17T11:17:18;7.38;;;3.08;;
36371;SDS011;22398;51.346;12.372;2024-03-17T11:27:44;11.45;;;4.38;;
36371;SDS011;22398;51.346;12.372;2024-03-17T11:32:48;9.25;;;3.42;;
36371;SDS011;22398;51.346;12.372;2024-03-17T11:37:50;9.15;;;3.80;;
36371;SDS011;22398;51.346;12.372;2024-03-17T11:43:00;10.50;;;3.60;;
36371;SDS011;22398;51.346;12.372;2024-03-17T11:48:05;12.63;;;3.67;;
36371;SDS011;22398;51.346;12.372;2024-03-17T11:53:15;7.78;;;3.30;;
36371;SDS011;22398;51.346;12.372;2024-03-17T11:58:17;7.05;;;3.00;;
36371;SDS011;22398;51.346;12.372;2024-03-17T12:03:21;16.30;;;4.60;;
36371;SDS011;22398;51.346;12.372;2024-03-17T12:08:24;8.80;;;4.53;;
36371;SDS011;22398;51.346;12.372;2024-03-17T12:13:32;11.63;;;5.00;;
36371;SDS011;22398;51.346;12.372;2024-03-17T12:18:36;11.25;;;5.53;;
36371;SDS011;22398;51.346;12.372;2024-03-17T12:23:41;8.23;;;4.90;;
36371;SDS011;22398;51.346;12.372;2024-03-17T12:28:45;12.27;;;4.00;;
36371;SDS011;22398;51.346;12.372;2024-03-17T12:33:50;7.72;;;3.70;;
36371;SDS011;22398;51.346;12.372;2024-03-17T12:38:53;9.10;;;3.38;;
36371;SDS011;22398;51.346;12.372;2024-03-17T12:43:55;6.40;;;3.65;;
36371;SDS011;22398;51.346;12.372;2024-03-17T12:49:00;7.68;;;3.70;;
36371;SDS011;22398;51.346;12.372;2024-03-17T12:54:11;8.90;;;3.83;;
36371;SDS011;22398;51.346;12.372;2024-03-17T12:59:14;6.72;;;3.17;;
36371;SDS011;22398;51.346;12.372;2024-03-17T13:04:35;10.48;;;3.53;;
36371;SDS011;22398;51.346;12.372;2024-03-17T13:09:38;10.35;;;3.35;;
36371;SDS011;22398;51.346;12.372;2024-03-17T13:14:40;5.72;;;2.72;;
36371;SDS011;22398;51.346;12.372;2024-03-17T13:19:46;8.93;;;3.00;;
36371;SDS011;22398;51.346;12.372;2024-03-17T13:24:48;7.72;;;2.80;;
36371;SDS011;22398;51.346;12.372;2024-03-17T13:29:52;10.07;;;2.97;;
36371;SDS011;22398;51.346;12.372;2024-03-17T13:34:55;6.47;;;2.72;;
36371;SDS011;22398;51.346;12.372;2024-03-17T13:39:58;9.27;;;3.97;;
36371;SDS011;22398;51.346;12.372;2024-03-17T13:45:04;7.82;;;3.35;;
36371;SDS011;22398;51.346;12.372;2024-03-17T13:50:09;4.72;;;2.70;;
36371;SDS011;22398;51.346;12.372;2024-03-17T13:55:13;8.30;;;2.70;;
36371;SDS011;22398;51.346;12.372;2024-03-17T14:00:17;10.15;;;2.95;;
36371;SDS011;22398;51.346;12.372;2024-03-17T14:05:23;11.15;;;3.25;;
36371;SDS011;22398;51.346;12.372;2024-03-17T14:10:26;9.60;;;3.03;;
36371;SDS011;22398;51.346;12.372;2024-03-17T14:15:28;6.18;;;2.80;;
36371;SDS011;22398;51.346;12.372;2024-03-17T14:20:32;6.20;;;2.20;;
36371;SDS011;22398;51.346;12.372;2024-03-17T14:25:34;5.63;;;2.88;;
36371;SDS011;22398;51.346;12.372;2024-03-17T14:30:36;5.25;;;2.30;;
36371;SDS011;22398;51.346;12.372;2024-03-17T14:35:39;6.30;;;2.60;;
36371;SDS011;22398;51.346;12.372;2024-03-17T14:40:42;5.32;;;3.08;;
36371;SDS011;22398;51.346;12.372;2024-03-17T14:45:44;7.70;;;3.33;;
36371;SDS011;22398;51.346;12.372;2024-03-17T14:50:48;9.43;;;3.35;;
36371;SDS011;22398;51.346;12.372;2024-03-17T14:55:50;11.18;;;2.88;;
36371;SDS011;22398;51.346;12.372;2024-03-17T15:00:53;9.73;;;3.65;;
36371;SDS011;22398;51.346;12.372;2024-03-17T15:05:57;4.25;;;3.00;;
36371;SDS011;22398;51.346;12.372;2024-03-17T15:10:59;6.50;;;3.10;;
36371;SDS011;22398;51.346;12.372;2024-03-17T15:16:02;11.93;;;3.30;;
36371;SDS011;22398;51.346;12.372;2024-03-17T15:21:06;11.18;;;2.85;;
36371;SDS011;22398;51.346;12.372;2024-03-17T15:26:08;12.50;;;4.03;;
36371;SDS011;22398;51.346;12.372;2024-03-17T15:31:12;14.10;;;3.63;;
36371;SDS011;22398;51.346;12.372;2024-03-17T15:36:15;9.27;;;3.50;;
36371;SDS011;22398;51.346;12.372;2024-03-17T15:41:17;10.20;;;3.00;;
36371;SDS011;22398;51.346;12.372;2024-03-17T15:46:20;9.93;;;2.88;;
36371;SDS011;22398;51.346;12.372;2024-03-17T15:51:24;6.43;;;3.50;;
36371;SDS011;22398;51.346;12.372;2024-03-17T15:56:28;9.07;;;3.40;;
36371;SDS011;22398;51.346;12.372;2024-03-17T16:01:30;7.03;;;3.45;;
36371;SDS011;22398;51.346;12.372;2024-03-17T16:06:33;9.27;;;4.07;;
36371;SDS011;22398;51.346;12.372;2024-03-17T16:11:36;11.00;;;2.80;;
36371;SDS011;22398;51.346;12.372;2024-03-17T16:16:39;4.45;;;2.88;;
36371;SDS011;22398;51.346;12.372;2024-03-17T16:21:44;6.65;;;3.10;;
36371;SDS011;22398;51.346;12.372;2024-03-17T16:26:46;8.55;;;3.20;;
36371;SDS011;22398;51.346;12.372;2024-03-17T16:31:49;6.90;;;3.25;;
36371;SDS011;22398;51.346;12.372;2024-03-17T16:36:53;11.95;;;3.05;;
36371;SDS011;22398;51.346;12.372;2024-03-17T16:41:55;8.32;;;2.83;;
36371;SDS011;22398;51.346;12.372;2024-03-17T16:52:31;14.13;;;4.18;;
36371;SDS011;22398;51.346;12.372;2024-03-17T16:57:34;6.25;;;3.60;;
36371;SDS011;22398;51.346;12.372;2024-03-17T17:02:37;10.02;;;3.70;;
36371;SDS011;22398;51.346;12.372;2024-03-17T17:07:40;10.05;;;3.78;;
36371;SDS011;22398;51.346;12.372;2024-03-17T17:12:44;8.00;;;3.47;;
36371;SDS011;22398;51.346;12.372;2024-03-17T17:17:46;8.13;;;3.15;;
36371;SDS011;22398;51.346;12.372;2024-03-17T17:22:51;11.10;;;3.55;;
36371;SDS011;22398;51.346;12.372;2024-03-17T17:27:53;12.70;;;4.18;;
36371;SDS011;22398;51.346;12.372;2024-03-17T17:32:56;6.50;;;3.92;;
36371;SDS011;22398;51.346;12.372;2024-03-17T17:38:00;10.80;;;3.88;;
36371;SDS011;22398;51.346;12.372;2024-03-17T17:43:02;15.77;;;3.90;;
36371;SDS011;22398;51.346;12.372;2024-03-17T17:48:05;9.48;;;4.55;;
36371;SDS011;22398;51.346;12.372;2024-03-17T17:53:09;8.82;;;3.97;;
36371;SDS011;22398;51.346;12.372;2024-03-17T17:58:11;12.98;;;4.47;;
36371;SDS011;22398;51.346;12.372;2024-03-17T18:03:13;12.68;;;5.28;;
36371;SDS011;22398;51.346;12.372;2024-03-17T18:08:17;12.63;;;4.82;;
36371;SDS011;22398;51.346;12.372;2024-03-17T18:13:20;15.95;;;5.30;;
36371;SDS011;22398;51.346;12.372;2024-03-17T18:18:22;9.57;;;4.57;;
36371;SDS011;22398;51.346;12.372;2024-03-17T18:23:26;11.57;;;4.60;;
36371;SDS011;22398;51.346;12.372;2024-03-17T18:28:29;11.43;;;4.68;;
36371;SDS011;22398;51.346;12.372;2024-03-17T18:33:31;18.15;;;5.72;;
36371;SDS011;22398;51.346;12.372;2024-03-17T18:38:35;13.50;;;5.65;;
36371;SDS011;22398;51.346;12.372;2024-03-17T18:43:38;11.38;;;5.07;;
36371;SDS011;22398;51.346;12.372;2024-03-17T18:48:48;14.68;;;5.65;;
36371;SDS011;22398;51.346;12.372;2024-03-17T18:53:54;14.15;;;5.63;;
36371;SDS011;22398;51.346;12.372;2024-03-17T18:58:56;12.65;;;6.45;;
36371;SDS011;22398;51.346;12.372;2024-03-17T19:03:58;20.92;;;7.22;;
36371;SDS011;22398;51.346;12.372;2024-03-17T19:09:03;17.42;;;6.35;;
36371;SDS011;22398;51.346;12.372;2024-03-17T19:14:08;16.17;;;6.35;;
36371;SDS011;22398;51.346;12.372;2024-03-17T19:19:12;11.15;;;5.07;;
36371;SDS011;22398;51.346;12.372;2024-03-17T19:24:15;16.20;;;6.47;;
36371;SDS011;22398;51.346;12.372;2024-03-17T19:29:17;10.60;;;5.70;;
36371;SDS011;22398;51.346;12.372;2024-03-17T19:34:19;16.17;;;6.80;;
36371;SDS011;22398;51.346;12.372;2024-03-17T19:39:23;13.07;;;5.68;;
36371;SDS011;22398;51.346;12.372;2024-03-17T19:44:25;18.52;;;5.63;;
36371;SDS011;22398;51.346;12.372;2024-03-17T19:49:28;18.15;;;6.55;;
36371;SDS011;22398;51.346;12.372;2024-03-17T19:54:31;15.82;;;5.72;;
36371;SDS011;22398;51.346;12.372;2024-03-17T19:59:36;16.30;;;6.40;;
36371;SDS011;22398;51.346;12.372;2024-03-17T20:04:38;15.63;;;5.90;;
36371;SDS011;22398;51.346;12.372;2024-03-17T20:09:44;15.52;;;5.90;;
36371;SDS011;22398;51.346;12.372;2024-03-17T20:14:46;12.30;;;5.72;;
36371;SDS011;22398;51.346;12.372;2024-03-17T20:19:48;17.58;;;5.28;;
36371;SDS011;22398;51.346;12.372;2024-03-17T20:24:53;15.85;;;5.28;;
36371;SDS011;22398;51.346;12.372;2024-03-17T20:30:02;14.68;;;5.57;;
36371;SDS011;22398;51.346;12.372;2024-03-17T20:35:05;22.15;;;5.95;;
36371;SDS011;22398;51.346;12.372;2024-03-17T20:40:11;16.88;;;6.20;;
36371;SDS011;22398;51.346;12.372;2024-03-17T20:45:15;15.15;;;6.28;;
36371;SDS011;22398;51.346;12.372;2024-03-17T20:50:19;14.52;;;5.78;;
36371;SDS011;22398;51.346;12.372;2024-03-17T20:55:24;15.85;;;5.82;;
36371;SDS011;22398;51.346;12.372;2024-03-17T21:00:26;11.48;;;4.90;;
36371;SDS011;22398;51.346;12.372;2024-03-17T21:05:28;20.98;;;4.60;;
36371;SDS011;22398;51.346;12.372;2024-03-17T21:10:34;16.05;;;4.65;;
36371;SDS011;22398;51.346;12.372;2024-03-17T21:15:37;10.35;;;4.53;;
36371;SDS011;22398;51.346;12.372;2024-03-17T21:20:39;15.27;;;4.32;;
36371;SDS011;22398;51.346;12.372;2024-03-17T21:25:42;18.45;;;5.55;;
36371;SDS011;22398;51.346;12.372;2024-03-17T21:30:44;17.80;;;4.90;;
36371;SDS011;22398;51.346;12.372;2024-03-17T21:35:48;10.75;;;4.78;;
36371;SDS011;22398;51.346;12.372;2024-03-17T21:40:52;8.68;;;3.90;;
36371;SDS011;22398;51.346;12.372;2024-03-17T21:45:58;6.97;;;3.22;;
36371;SDS011;22398;51.346;12.372;2024-03-17T21:51:00;11.57;;;3.60;;
36371;SDS011;22398;51.346;12.372;2024-03-17T21:56:04;10.02;;;3.15;;
36371;SDS011;22398;51.346;12.372;2024-03-17T22:01:06;8.55;;;2.92;;
36371;SDS011;22398;51.346;12.372;2024-03-17T22:06:09;6.63;;;2.40;;
36371;SDS011;22398;51.346;12.372;2024-03-17T22:11:14;11.32;;;3.22;;
36371;SDS011;22398;51.346;12.372;2024-03-17T22:16:17;15.50;;;2.25;;
36371;SDS011;22398;51.346;12.372;2024-03-17T22:21:19;7.13;;;2.38;;
36371;SDS011;22398;51.346;12.372;2024-03-17T22:26:23;11.02;;;2.28;;
36371;SDS011;22398;51.346;12.372;2024-03-17T22:31:25;10.77;;;2.63;;
36371;SDS011;22398;51.346;12.372;2024-03-17T22:36:27;7.70;;;3.70;;
36371;SDS011;22398;51.346;12.372;2024-03-17T22:41:30;12.27;;;2.97;;
36371;SDS011;22398;51.346;12.372;2024-03-17T22:46:35;12.68;;;2.95;;
36371;SDS011;22398;51.346;12.372;2024-03-17T22:51:38;10.15;;;2.65;;
36371;SDS011;22398;51.346;12.372;2024-03-17T22:56:41;10.45;;;2.28;;
36371;SDS011;22398;51.346;12.372;2024-03-17T23:01:44;8.85;;;2.53;;
36371;SDS011;22398;51.346;12.372;2024-03-17T23:06:47;7.57;;;2.47;;
36371;SDS011;22398;51.346;12.372;2024-03-17T23:11:51;10.38;;;2.45;;
36371;SDS011;22398;51.346;12.372;2024-03-17T23:16:53;12.82;;;2.53;;
36371;SDS011;22398;51.346;12.372;2024-03-17T23:21:55;7.07;;;3.10;;
36371;SDS011;22398;51.346;12.372;2024-03-17T23:26:59;9.88;;;2.63;;
36371;SDS011;22398;51.346;12.372;2024-03-17T23:32:01;8.10;;;2.03;;
36371;SDS011;22398;51.346;12.372;2024-03-17T23:37:03;11.05;;;2.90;;
36371;SDS011;22398;51.346;12.372;2024-03-17T23:42:07;5.72;;;1.98;;
36371;SDS011;22398;51.346;12.372;2024-03-17T23:47:09;15.93;;;2.25;;
36371;SDS011;22398;51.346;12.372;2024-03-17T23:52:11;4.28;;;1.65;;
36371;SDS011;22398;51.346;12.372;2024-03-17T23:57:15;9.40;;;1.90;;
